sensor_id;sensor_type;location;lat;lon;timestamp;temperature;humidity
21678;DHT22;11000;50.360;7.582;2022-08-07T00:01:09;17.30;99.90
21678;DHT22;11000;50.360;7.582;2022-08-07T00:03:30;17.30;99.90
21678;DHT22;11000;50.360;7.582;2022-08-07T00:05:52;17.20;99.90
21678;DHT22;11000;50.360;7.582;2022-08-07T00:08:12;17.20;99.90
21678;DHT22;11000;50.360;7.582;2022-08-07T00:10:33;17.20;99.90
21678;DHT22;11000;50.360;7.582;2022-08-07T00:12:54;17.20;99.90
21678;DHT22;11000;50.360;7.582;2022-08-07T00:15:15;17.10;99.90
21678;DHT22;11000;50.360;7.582;2022-08-07T00:17:36;17.10;99.90
21678;DHT22;11000;50.360;7.582;2022-08-07T00:19:56;17.00;99.90
21678;DHT22;11000;50.360;7.582;2022-08-07T00:22:17;16.90;99.90
21678;DHT22;11000;50.360;7.582;2022-08-07T00:24:39;16.90;99.90
21678;DHT22;11000;50.360;7.582;2022-08-07T00:26:59;16.80;99.90
21678;DHT22;11000;50.360;7.582;2022-08-07T00:29:20;16.80;99.90
21678;DHT22;11000;50.360;7.582;2022-08-07T00:31:45;16.70;99.90
21678;DHT22;11000;50.360;7.582;2022-08-07T00:34:05;16.70;99.90
21678;DHT22;11000;50.360;7.582;2022-08-07T00:36:26;16.40;99.90
21678;DHT22;11000;50.360;7.582;2022-08-07T00:38:46;16.40;99.90
21678;DHT22;11000;50.360;7.582;2022-08-07T00:41:07;16.20;99.90
21678;DHT22;11000;50.360;7.582;2022-08-07T00:43:27;16.20;99.90
21678;DHT22;11000;50.360;7.582;2022-08-07T00:45:48;15.90;99.90
21678;DHT22;11000;50.360;7.582;2022-08-07T00:48:09;16.00;99.90
21678;DHT22;11000;50.360;7.582;2022-08-07T00:50:30;15.90;99.90
21678;DHT22;11000;50.360;7.582;2022-08-07T00:52:51;16.00;99.90
21678;DHT22;11000;50.360;7.582;2022-08-07T00:55:11;16.10;99.90
21678;DHT22;11000;50.360;7.582;2022-08-07T00:57:32;16.00;99.90
21678;DHT22;11000;50.360;7.582;2022-08-07T00:59:53;16.00;99.90
21678;DHT22;11000;50.360;7.582;2022-08-07T01:02:13;16.10;99.90
21678;DHT22;11000;50.360;7.582;2022-08-07T01:04:34;15.80;99.90
21678;DHT22;11000;50.360;7.582;2022-08-07T01:06:54;15.70;99.90
21678;DHT22;11000;50.360;7.582;2022-08-07T01:09:15;15.80;99.90
21678;DHT22;11000;50.360;7.582;2022-08-07T01:11:37;15.90;99.90
21678;DHT22;11000;50.360;7.582;2022-08-07T01:13:59;15.90;99.90
21678;DHT22;11000;50.360;7.582;2022-08-07T01:16:20;15.90;99.90
21678;DHT22;11000;50.360;7.582;2022-08-07T01:18:41;15.90;99.90
21678;DHT22;11000;50.360;7.582;2022-08-07T01:21:12;15.90;99.90
21678;DHT22;11000;50.360;7.582;2022-08-07T01:23:33;15.90;99.90
21678;DHT22;11000;50.360;7.582;2022-08-07T01:25:53;15.90;99.90
21678;DHT22;11000;50.360;7.582;2022-08-07T01:28:14;15.90;99.90
21678;DHT22;11000;50.360;7.582;2022-08-07T01:30:35;15.90;99.90
21678;DHT22;11000;50.360;7.582;2022-08-07T01:32:58;15.90;99.90
21678;DHT22;11000;50.360;7.582;2022-08-07T01:35:18;15.90;99.90
21678;DHT22;11000;50.360;7.582;2022-08-07T01:37:39;15.80;99.90
21678;DHT22;11000;50.360;7.582;2022-08-07T01:40:00;15.80;99.90
21678;DHT22;11000;50.360;7.582;2022-08-07T01:42:24;15.60;99.90
21678;DHT22;11000;50.360;7.582;2022-08-07T01:44:45;15.50;99.90
21678;DHT22;11000;50.360;7.582;2022-08-07T01:47:07;15.50;99.90
21678;DHT22;11000;50.360;7.582;2022-08-07T01:49:29;15.50;99.90
21678;DHT22;11000;50.360;7.582;2022-08-07T01:51:49;15.50;99.90
21678;DHT22;11000;50.360;7.582;2022-08-07T01:54:12;15.50;99.90
21678;DHT22;11000;50.360;7.582;2022-08-07T01:56:55;15.50;99.90
21678;DHT22;11000;50.360;7.582;2022-08-07T01:59:46;15.30;99.90
21678;DHT22;11000;50.360;7.582;2022-08-07T02:02:18;15.30;99.90
21678;DHT22;11000;50.360;7.582;2022-08-07T02:04:53;15.00;99.90
21678;DHT22;11000;50.360;7.582;2022-08-07T02:07:16;15.10;99.90
21678;DHT22;11000;50.360;7.582;2022-08-07T02:09:40;15.10;99.90
21678;DHT22;11000;50.360;7.582;2022-08-07T02:12:03;15.20;99.90
21678;DHT22;11000;50.360;7.582;2022-08-07T02:14:37;15.20;99.90
21678;DHT22;11000;50.360;7.582;2022-08-07T02:16:58;15.20;99.90
21678;DHT22;11000;50.360;7.582;2022-08-07T02:19:19;15.20;99.90
21678;DHT22;11000;50.360;7.582;2022-08-07T02:21:41;15.10;99.90
21678;DHT22;11000;50.360;7.582;2022-08-07T02:24:03;15.10;99.90
21678;DHT22;11000;50.360;7.582;2022-08-07T02:26:26;14.60;99.90
21678;DHT22;11000;50.360;7.582;2022-08-07T02:28:47;14.70;99.90
21678;DHT22;11000;50.360;7.582;2022-08-07T02:31:08;14.80;99.90
21678;DHT22;11000;50.360;7.582;2022-08-07T02:33:30;14.90;99.90
21678;DHT22;11000;50.360;7.582;2022-08-07T02:35:53;14.90;99.90
21678;DHT22;11000;50.360;7.582;2022-08-07T02:38:15;15.00;99.90
21678;DHT22;11000;50.360;7.582;2022-08-07T02:40:37;14.70;99.90
21678;DHT22;11000;50.360;7.582;2022-08-07T02:42:58;14.80;99.90
21678;DHT22;11000;50.360;7.582;2022-08-07T02:45:19;14.70;99.90
21678;DHT22;11000;50.360;7.582;2022-08-07T02:47:41;14.80;99.90
21678;DHT22;11000;50.360;7.582;2022-08-07T02:50:03;14.80;99.90
21678;DHT22;11000;50.360;7.582;2022-08-07T02:52:29;14.90;99.90
21678;DHT22;11000;50.360;7.582;2022-08-07T02:54:52;14.80;99.90
21678;DHT22;11000;50.360;7.582;2022-08-07T02:57:15;14.80;99.90
21678;DHT22;11000;50.360;7.582;2022-08-07T02:59:40;14.80;99.90
21678;DHT22;11000;50.360;7.582;2022-08-07T03:02:04;14.80;99.90
21678;DHT22;11000;50.360;7.582;2022-08-07T03:04:26;14.80;99.90
21678;DHT22;11000;50.360;7.582;2022-08-07T03:06:48;14.80;99.90
21678;DHT22;11000;50.360;7.582;2022-08-07T03:09:09;14.70;99.90
21678;DHT22;11000;50.360;7.582;2022-08-07T03:11:32;14.60;99.90
21678;DHT22;11000;50.360;7.582;2022-08-07T03:13:53;14.60;99.90
21678;DHT22;11000;50.360;7.582;2022-08-07T03:16:15;14.60;99.90
21678;DHT22;11000;50.360;7.582;2022-08-07T03:18:35;14.40;99.90
21678;DHT22;11000;50.360;7.582;2022-08-07T03:20:57;14.50;99.90
21678;DHT22;11000;50.360;7.582;2022-08-07T03:23:19;14.50;99.90
21678;DHT22;11000;50.360;7.582;2022-08-07T03:25:41;14.50;99.90
21678;DHT22;11000;50.360;7.582;2022-08-07T03:28:03;14.50;99.90
21678;DHT22;11000;50.360;7.582;2022-08-07T03:30:24;14.50;99.90
21678;DHT22;11000;50.360;7.582;2022-08-07T03:32:46;14.50;99.90
21678;DHT22;11000;50.360;7.582;2022-08-07T03:35:16;14.50;99.90
21678;DHT22;11000;50.360;7.582;2022-08-07T03:37:39;14.40;99.90
21678;DHT22;11000;50.360;7.582;2022-08-07T03:40:03;14.50;99.90
21678;DHT22;11000;50.360;7.582;2022-08-07T03:42:24;14.40;99.90
21678;DHT22;11000;50.360;7.582;2022-08-07T03:44:45;14.40;99.90
21678;DHT22;11000;50.360;7.582;2022-08-07T03:47:06;14.30;99.90
21678;DHT22;11000;50.360;7.582;2022-08-07T03:49:27;14.10;99.90
21678;DHT22;11000;50.360;7.582;2022-08-07T03:51:49;14.00;99.90
21678;DHT22;11000;50.360;7.582;2022-08-07T03:54:11;13.90;99.90
21678;DHT22;11000;50.360;7.582;2022-08-07T03:56:34;14.00;99.90
21678;DHT22;11000;50.360;7.582;2022-08-07T03:58:55;13.90;99.90
21678;DHT22;11000;50.360;7.582;2022-08-07T04:01:17;13.90;99.90
21678;DHT22;11000;50.360;7.582;2022-08-07T04:03:39;13.90;99.90
21678;DHT22;11000;50.360;7.582;2022-08-07T04:05:59;13.90;99.90
21678;DHT22;11000;50.360;7.582;2022-08-07T04:08:20;14.00;99.90
21678;DHT22;11000;50.360;7.582;2022-08-07T04:10:42;14.00;99.90
21678;DHT22;11000;50.360;7.582;2022-08-07T04:13:03;14.10;99.90
21678;DHT22;11000;50.360;7.582;2022-08-07T04:15:25;14.10;99.90
21678;DHT22;11000;50.360;7.582;2022-08-07T04:17:46;14.10;99.90
21678;DHT22;11000;50.360;7.582;2022-08-07T04:20:10;14.10;99.90
21678;DHT22;11000;50.360;7.582;2022-08-07T04:22:31;14.10;99.90
21678;DHT22;11000;50.360;7.582;2022-08-07T04:24:52;14.10;99.90
21678;DHT22;11000;50.360;7.582;2022-08-07T04:27:13;14.00;99.90
21678;DHT22;11000;50.360;7.582;2022-08-07T04:29:33;14.00;99.90
21678;DHT22;11000;50.360;7.582;2022-08-07T04:31:55;14.00;99.90
21678;DHT22;11000;50.360;7.582;2022-08-07T04:34:16;14.00;99.90
21678;DHT22;11000;50.360;7.582;2022-08-07T04:36:37;14.00;99.90
21678;DHT22;11000;50.360;7.582;2022-08-07T04:39:00;14.00;99.90
21678;DHT22;11000;50.360;7.582;2022-08-07T04:41:21;14.00;99.90
21678;DHT22;11000;50.360;7.582;2022-08-07T04:43:42;14.10;99.90
21678;DHT22;11000;50.360;7.582;2022-08-07T04:54:26;14.10;99.90
21678;DHT22;11000;50.360;7.582;2022-08-07T04:56:50;14.00;99.90
21678;DHT22;11000;50.360;7.582;2022-08-07T04:59:20;14.10;99.90
21678;DHT22;11000;50.360;7.582;2022-08-07T05:02:04;14.10;99.90
21678;DHT22;11000;50.360;7.582;2022-08-07T05:04:39;14.10;99.90
21678;DHT22;11000;50.360;7.582;2022-08-07T05:07:15;14.10;99.90
21678;DHT22;11000;50.360;7.582;2022-08-07T05:12:20;14.20;99.90
21678;DHT22;11000;50.360;7.582;2022-08-07T05:14:46;14.20;99.90
21678;DHT22;11000;50.360;7.582;2022-08-07T05:17:10;14.10;99.90
21678;DHT22;11000;50.360;7.582;2022-08-07T05:19:36;14.20;99.90
21678;DHT22;11000;50.360;7.582;2022-08-07T05:21:59;14.20;99.90
21678;DHT22;11000;50.360;7.582;2022-08-07T05:24:22;14.20;99.90
21678;DHT22;11000;50.360;7.582;2022-08-07T05:26:43;14.30;99.90
21678;DHT22;11000;50.360;7.582;2022-08-07T05:29:07;14.40;99.90
21678;DHT22;11000;50.360;7.582;2022-08-07T05:31:33;14.40;99.90
21678;DHT22;11000;50.360;7.582;2022-08-07T05:33:54;14.50;99.90
21678;DHT22;11000;50.360;7.582;2022-08-07T05:36:16;14.70;99.90
21678;DHT22;11000;50.360;7.582;2022-08-07T05:38:38;15.10;99.90
21678;DHT22;11000;50.360;7.582;2022-08-07T05:41:01;15.40;99.90
21678;DHT22;11000;50.360;7.582;2022-08-07T05:43:21;15.70;99.90
21678;DHT22;11000;50.360;7.582;2022-08-07T05:45:46;16.00;99.90
21678;DHT22;11000;50.360;7.582;2022-08-07T05:48:07;16.40;99.90
21678;DHT22;11000;50.360;7.582;2022-08-07T05:50:30;16.60;99.90
21678;DHT22;11000;50.360;7.582;2022-08-07T05:52:51;16.90;99.90
21678;DHT22;11000;50.360;7.582;2022-08-07T05:55:13;16.30;99.90
21678;DHT22;11000;50.360;7.582;2022-08-07T05:57:36;16.30;99.90
21678;DHT22;11000;50.360;7.582;2022-08-07T05:59:58;16.50;99.90
21678;DHT22;11000;50.360;7.582;2022-08-07T06:02:20;16.90;99.90
21678;DHT22;11000;50.360;7.582;2022-08-07T06:04:47;17.40;99.90
21678;DHT22;11000;50.360;7.582;2022-08-07T06:07:10;17.80;99.90
21678;DHT22;11000;50.360;7.582;2022-08-07T06:09:31;17.80;99.90
21678;DHT22;11000;50.360;7.582;2022-08-07T06:11:52;18.00;99.90
21678;DHT22;11000;50.360;7.582;2022-08-07T06:14:13;18.20;99.90
21678;DHT22;11000;50.360;7.582;2022-08-07T06:16:34;18.50;99.90
21678;DHT22;11000;50.360;7.582;2022-08-07T06:18:55;18.60;99.90
21678;DHT22;11000;50.360;7.582;2022-08-07T06:21:16;18.90;99.90
21678;DHT22;11000;50.360;7.582;2022-08-07T06:23:37;19.10;99.90
21678;DHT22;11000;50.360;7.582;2022-08-07T06:26:00;18.60;99.90
21678;DHT22;11000;50.360;7.582;2022-08-07T06:28:21;18.90;99.90
21678;DHT22;11000;50.360;7.582;2022-08-07T06:30:42;19.30;99.90
21678;DHT22;11000;50.360;7.582;2022-08-07T06:33:04;19.50;99.90
21678;DHT22;11000;50.360;7.582;2022-08-07T06:35:24;19.60;99.90
21678;DHT22;11000;50.360;7.582;2022-08-07T06:37:45;19.80;99.90
21678;DHT22;11000;50.360;7.582;2022-08-07T06:40:06;20.10;99.90
21678;DHT22;11000;50.360;7.582;2022-08-07T06:42:32;19.60;99.90
21678;DHT22;11000;50.360;7.582;2022-08-07T06:44:57;19.80;99.90
21678;DHT22;11000;50.360;7.582;2022-08-07T06:47:18;20.10;99.90
21678;DHT22;11000;50.360;7.582;2022-08-07T06:49:39;20.20;99.90
21678;DHT22;11000;50.360;7.582;2022-08-07T06:52:02;20.60;99.90
21678;DHT22;11000;50.360;7.582;2022-08-07T06:54:25;20.50;99.90
21678;DHT22;11000;50.360;7.582;2022-08-07T06:56:47;20.90;99.90
21678;DHT22;11000;50.360;7.582;2022-08-07T06:59:15;21.00;99.90
21678;DHT22;11000;50.360;7.582;2022-08-07T07:01:37;21.20;99.90
21678;DHT22;11000;50.360;7.582;2022-08-07T07:03:58;20.70;99.90
21678;DHT22;11000;50.360;7.582;2022-08-07T07:06:19;20.50;99.90
21678;DHT22;11000;50.360;7.582;2022-08-07T07:08:40;21.00;99.90
21678;DHT22;11000;50.360;7.582;2022-08-07T07:11:02;20.40;99.90
21678;DHT22;11000;50.360;7.582;2022-08-07T07:13:46;20.80;99.90
21678;DHT22;11000;50.360;7.582;2022-08-07T07:16:19;21.20;99.90
21678;DHT22;11000;50.360;7.582;2022-08-07T07:18:48;21.40;99.90
21678;DHT22;11000;50.360;7.582;2022-08-07T07:21:23;20.90;99.90
21678;DHT22;11000;50.360;7.582;2022-08-07T07:23:46;20.70;99.90
21678;DHT22;11000;50.360;7.582;2022-08-07T07:26:10;21.40;99.90
21678;DHT22;11000;50.360;7.582;2022-08-07T07:28:36;21.30;99.90
21678;DHT22;11000;50.360;7.582;2022-08-07T07:31:01;21.00;99.90
21678;DHT22;11000;50.360;7.582;2022-08-07T07:33:25;21.40;99.90
21678;DHT22;11000;50.360;7.582;2022-08-07T07:35:49;21.70;99.90
21678;DHT22;11000;50.360;7.582;2022-08-07T07:38:11;22.10;98.80
21678;DHT22;11000;50.360;7.582;2022-08-07T07:40:33;22.30;96.70
21678;DHT22;11000;50.360;7.582;2022-08-07T07:42:57;22.50;95.80
21678;DHT22;11000;50.360;7.582;2022-08-07T07:45:22;22.50;93.90
21678;DHT22;11000;50.360;7.582;2022-08-07T07:47:46;22.00;96.10
21678;DHT22;11000;50.360;7.582;2022-08-07T07:50:12;22.40;96.40
21678;DHT22;11000;50.360;7.582;2022-08-07T07:52:39;22.80;94.50
21678;DHT22;11000;50.360;7.582;2022-08-07T07:55:02;23.30;91.90
21678;DHT22;11000;50.360;7.582;2022-08-07T07:57:24;23.30;92.40
21678;DHT22;11000;50.360;7.582;2022-08-07T07:59:49;23.80;90.10
21678;DHT22;11000;50.360;7.582;2022-08-07T08:02:12;24.00;88.20
21678;DHT22;11000;50.360;7.582;2022-08-07T08:04:35;24.50;84.20
21678;DHT22;11000;50.360;7.582;2022-08-07T08:06:57;24.10;85.70
21678;DHT22;11000;50.360;7.582;2022-08-07T08:09:21;24.00;86.80
21678;DHT22;11000;50.360;7.582;2022-08-07T08:11:44;23.70;85.80
21678;DHT22;11000;50.360;7.582;2022-08-07T08:14:05;23.70;84.70
21678;DHT22;11000;50.360;7.582;2022-08-07T08:16:42;23.50;87.00
21678;DHT22;11000;50.360;7.582;2022-08-07T08:19:07;23.40;86.50
21678;DHT22;11000;50.360;7.582;2022-08-07T08:21:29;23.40;84.60
21678;DHT22;11000;50.360;7.582;2022-08-07T08:24:10;23.50;85.00
21678;DHT22;11000;50.360;7.582;2022-08-07T08:26:52;23.80;83.00
21678;DHT22;11000;50.360;7.582;2022-08-07T08:29:26;24.00;81.20
21678;DHT22;11000;50.360;7.582;2022-08-07T08:31:49;24.50;79.50
21678;DHT22;11000;50.360;7.582;2022-08-07T08:34:13;25.00;76.20
21678;DHT22;11000;50.360;7.582;2022-08-07T08:36:38;25.00;73.30
21678;DHT22;11000;50.360;7.582;2022-08-07T08:39:03;24.90;74.40
21678;DHT22;11000;50.360;7.582;2022-08-07T08:43:50;25.20;73.50
21678;DHT22;11000;50.360;7.582;2022-08-07T08:52:15;24.40;71.70
21678;DHT22;11000;50.360;7.582;2022-08-07T08:54:42;25.00;73.40
21678;DHT22;11000;50.360;7.582;2022-08-07T08:57:09;25.00;72.40
21678;DHT22;11000;50.360;7.582;2022-08-07T08:59:44;25.40;71.60
21678;DHT22;11000;50.360;7.582;2022-08-07T09:02:18;25.40;68.80
21678;DHT22;11000;50.360;7.582;2022-08-07T09:07:41;25.60;67.10
21678;DHT22;11000;50.360;7.582;2022-08-07T09:10:14;26.00;68.10
21678;DHT22;11000;50.360;7.582;2022-08-07T09:13:00;25.60;66.50
21678;DHT22;11000;50.360;7.582;2022-08-07T09:21:38;25.90;65.10
21678;DHT22;11000;50.360;7.582;2022-08-07T09:27:29;26.30;64.30
21678;DHT22;11000;50.360;7.582;2022-08-07T09:35:18;27.10;62.20
21678;DHT22;11000;50.360;7.582;2022-08-07T09:37:43;27.10;62.10
21678;DHT22;11000;50.360;7.582;2022-08-07T09:40:31;27.70;59.20
21678;DHT22;11000;50.360;7.582;2022-08-07T09:45:28;27.50;59.50
21678;DHT22;11000;50.360;7.582;2022-08-07T09:51:19;27.50;58.90
21678;DHT22;11000;50.360;7.582;2022-08-07T09:53:42;26.30;58.40
21678;DHT22;11000;50.360;7.582;2022-08-07T10:01:59;26.10;61.60
21678;DHT22;11000;50.360;7.582;2022-08-07T10:04:59;26.70;61.70
21678;DHT22;11000;50.360;7.582;2022-08-07T10:07:50;26.90;59.00
21678;DHT22;11000;50.360;7.582;2022-08-07T10:10:23;26.30;60.30
21678;DHT22;11000;50.360;7.582;2022-08-07T10:16:09;26.50;61.00
21678;DHT22;11000;50.360;7.582;2022-08-07T10:19:08;27.00;60.30
21678;DHT22;11000;50.360;7.582;2022-08-07T10:32:40;28.50;53.30
21678;DHT22;11000;50.360;7.582;2022-08-07T10:35:06;27.50;54.00
21678;DHT22;11000;50.360;7.582;2022-08-07T10:38:04;27.00;54.20
21678;DHT22;11000;50.360;7.582;2022-08-07T10:40:55;26.20;55.10
21678;DHT22;11000;50.360;7.582;2022-08-07T10:43:25;26.60;55.40
21678;DHT22;11000;50.360;7.582;2022-08-07T10:45:51;26.80;55.90
21678;DHT22;11000;50.360;7.582;2022-08-07T10:48:25;27.80;53.90
21678;DHT22;11000;50.360;7.582;2022-08-07T10:50:55;28.30;52.70
21678;DHT22;11000;50.360;7.582;2022-08-07T10:53:30;29.10;51.70
21678;DHT22;11000;50.360;7.582;2022-08-07T11:01:59;28.20;51.40
21678;DHT22;11000;50.360;7.582;2022-08-07T11:09:51;27.10;51.20
21678;DHT22;11000;50.360;7.582;2022-08-07T11:12:24;27.20;51.30
21678;DHT22;11000;50.360;7.582;2022-08-07T11:14:59;27.90;52.20
21678;DHT22;11000;50.360;7.582;2022-08-07T11:17:47;27.90;49.60
21678;DHT22;11000;50.360;7.582;2022-08-07T11:20:20;27.40;50.50
21678;DHT22;11000;50.360;7.582;2022-08-07T11:25:33;26.50;51.20
21678;DHT22;11000;50.360;7.582;2022-08-07T11:28:11;26.20;51.40
21678;DHT22;11000;50.360;7.582;2022-08-07T11:30:44;26.30;51.80
21678;DHT22;11000;50.360;7.582;2022-08-07T11:33:40;26.80;53.40
21678;DHT22;11000;50.360;7.582;2022-08-07T11:39:08;27.40;51.40
21678;DHT22;11000;50.360;7.582;2022-08-07T11:41:41;28.50;50.40
21678;DHT22;11000;50.360;7.582;2022-08-07T11:44:25;28.40;47.20
21678;DHT22;11000;50.360;7.582;2022-08-07T11:47:16;27.50;49.30
21678;DHT22;11000;50.360;7.582;2022-08-07T11:49:53;28.00;48.90
21678;DHT22;11000;50.360;7.582;2022-08-07T11:52:54;27.60;47.60
21678;DHT22;11000;50.360;7.582;2022-08-07T12:00:57;28.30;49.20
21678;DHT22;11000;50.360;7.582;2022-08-07T12:03:52;27.80;47.90
21678;DHT22;11000;50.360;7.582;2022-08-07T12:09:18;28.20;47.60
21678;DHT22;11000;50.360;7.582;2022-08-07T12:12:01;27.50;47.90
21678;DHT22;11000;50.360;7.582;2022-08-07T12:14:26;27.90;48.10
21678;DHT22;11000;50.360;7.582;2022-08-07T12:16:55;28.20;48.00
21678;DHT22;11000;50.360;7.582;2022-08-07T12:19:42;28.10;48.20
21678;DHT22;11000;50.360;7.582;2022-08-07T12:22:27;27.90;47.40
21678;DHT22;11000;50.360;7.582;2022-08-07T12:25:16;27.70;46.70
21678;DHT22;11000;50.360;7.582;2022-08-07T12:28:01;28.00;47.80
21678;DHT22;11000;50.360;7.582;2022-08-07T12:30:27;27.50;47.20
21678;DHT22;11000;50.360;7.582;2022-08-07T12:32:59;28.00;48.50
21678;DHT22;11000;50.360;7.582;2022-08-07T12:35:21;29.00;46.20
21678;DHT22;11000;50.360;7.582;2022-08-07T12:37:46;29.00;45.60
21678;DHT22;11000;50.360;7.582;2022-08-07T12:40:09;28.60;46.80
21678;DHT22;11000;50.360;7.582;2022-08-07T12:42:32;29.20;45.90
21678;DHT22;11000;50.360;7.582;2022-08-07T12:44:57;29.50;45.90
21678;DHT22;11000;50.360;7.582;2022-08-07T12:47:39;30.30;44.80
21678;DHT22;11000;50.360;7.582;2022-08-07T12:52:44;28.30;46.00
21678;DHT22;11000;50.360;7.582;2022-08-07T12:55:08;27.70;47.10
21678;DHT22;11000;50.360;7.582;2022-08-07T12:57:34;28.20;47.10
21678;DHT22;11000;50.360;7.582;2022-08-07T12:59:58;28.20;47.90
21678;DHT22;11000;50.360;7.582;2022-08-07T13:02:31;27.60;46.40
21678;DHT22;11000;50.360;7.582;2022-08-07T13:08:04;27.70;47.30
21678;DHT22;11000;50.360;7.582;2022-08-07T13:15:38;28.60;47.40
21678;DHT22;11000;50.360;7.582;2022-08-07T13:20:52;28.20;45.50
21678;DHT22;11000;50.360;7.582;2022-08-07T13:26:38;28.10;45.80
21678;DHT22;11000;50.360;7.582;2022-08-07T13:31:52;28.90;46.40
21678;DHT22;11000;50.360;7.582;2022-08-07T13:34:59;28.80;45.40
21678;DHT22;11000;50.360;7.582;2022-08-07T13:37:15;29.60;44.80
21678;DHT22;11000;50.360;7.582;2022-08-07T13:39:55;28.80;46.00
21678;DHT22;11000;50.360;7.582;2022-08-07T13:42:22;29.00;44.30
21678;DHT22;11000;50.360;7.582;2022-08-07T13:44:44;28.60;45.20
21678;DHT22;11000;50.360;7.582;2022-08-07T13:47:07;27.90;45.90
21678;DHT22;11000;50.360;7.582;2022-08-07T13:49:38;27.40;46.20
21678;DHT22;11000;50.360;7.582;2022-08-07T13:52:07;27.40;46.70
21678;DHT22;11000;50.360;7.582;2022-08-07T13:54:29;28.10;47.70
21678;DHT22;11000;50.360;7.582;2022-08-07T13:56:53;28.50;47.00
21678;DHT22;11000;50.360;7.582;2022-08-07T13:59:24;28.30;46.30
21678;DHT22;11000;50.360;7.582;2022-08-07T14:01:54;27.70;46.70
21678;DHT22;11000;50.360;7.582;2022-08-07T14:04:15;27.70;47.10
21678;DHT22;11000;50.360;7.582;2022-08-07T14:06:39;27.70;46.90
21678;DHT22;11000;50.360;7.582;2022-08-07T14:09:02;28.10;47.40
21678;DHT22;11000;50.360;7.582;2022-08-07T14:11:27;28.30;46.70
21678;DHT22;11000;50.360;7.582;2022-08-07T14:13:54;28.60;45.70
21678;DHT22;11000;50.360;7.582;2022-08-07T14:16:16;28.10;45.90
21678;DHT22;11000;50.360;7.582;2022-08-07T14:18:39;27.70;47.40
21678;DHT22;11000;50.360;7.582;2022-08-07T14:21:09;27.50;48.70
21678;DHT22;11000;50.360;7.582;2022-08-07T14:23:31;28.00;48.40
21678;DHT22;11000;50.360;7.582;2022-08-07T14:26:00;28.90;46.50
21678;DHT22;11000;50.360;7.582;2022-08-07T14:28:27;29.50;46.20
21678;DHT22;11000;50.360;7.582;2022-08-07T14:30:48;29.60;45.20
21678;DHT22;11000;50.360;7.582;2022-08-07T14:33:10;29.10;44.90
21678;DHT22;11000;50.360;7.582;2022-08-07T14:35:36;28.50;45.80
21678;DHT22;11000;50.360;7.582;2022-08-07T14:38:08;28.10;47.40
21678;DHT22;11000;50.360;7.582;2022-08-07T14:40:31;27.90;47.80
21678;DHT22;11000;50.360;7.582;2022-08-07T14:46:22;27.50;47.90
21678;DHT22;11000;50.360;7.582;2022-08-07T14:48:46;27.60;48.30
21678;DHT22;11000;50.360;7.582;2022-08-07T14:51:11;27.80;48.60
21678;DHT22;11000;50.360;7.582;2022-08-07T14:53:39;28.30;47.60
21678;DHT22;11000;50.360;7.582;2022-08-07T14:56:13;28.70;46.10
21678;DHT22;11000;50.360;7.582;2022-08-07T14:58:37;28.50;45.90
21678;DHT22;11000;50.360;7.582;2022-08-07T15:01:02;27.90;46.50
21678;DHT22;11000;50.360;7.582;2022-08-07T15:03:26;27.90;46.90
21678;DHT22;11000;50.360;7.582;2022-08-07T15:05:48;27.60;46.50
21678;DHT22;11000;50.360;7.582;2022-08-07T15:08:10;27.40;47.20
21678;DHT22;11000;50.360;7.582;2022-08-07T15:10:31;27.20;47.30
21678;DHT22;11000;50.360;7.582;2022-08-07T15:12:59;27.70;47.30
21678;DHT22;11000;50.360;7.582;2022-08-07T15:15:24;27.30;46.70
21678;DHT22;11000;50.360;7.582;2022-08-07T15:17:57;27.30;47.20
21678;DHT22;11000;50.360;7.582;2022-08-07T15:20:23;27.60;47.60
21678;DHT22;11000;50.360;7.582;2022-08-07T15:22:49;28.40;48.80
21678;DHT22;11000;50.360;7.582;2022-08-07T15:25:13;29.20;45.40
21678;DHT22;11000;50.360;7.582;2022-08-07T15:27:39;29.40;44.50
21678;DHT22;11000;50.360;7.582;2022-08-07T15:30:07;29.40;44.00
21678;DHT22;11000;50.360;7.582;2022-08-07T15:32:29;29.80;43.90
21678;DHT22;11000;50.360;7.582;2022-08-07T15:34:52;30.00;44.90
21678;DHT22;11000;50.360;7.582;2022-08-07T15:37:15;30.00;44.50
21678;DHT22;11000;50.360;7.582;2022-08-07T15:39:38;30.00;43.60
21678;DHT22;11000;50.360;7.582;2022-08-07T15:42:02;29.30;43.50
21678;DHT22;11000;50.360;7.582;2022-08-07T15:44:24;28.60;44.30
21678;DHT22;11000;50.360;7.582;2022-08-07T15:46:56;28.70;45.30
21678;DHT22;11000;50.360;7.582;2022-08-07T15:49:18;28.40;45.00
21678;DHT22;11000;50.360;7.582;2022-08-07T15:51:44;28.10;44.80
21678;DHT22;11000;50.360;7.582;2022-08-07T15:54:06;28.20;45.20
21678;DHT22;11000;50.360;7.582;2022-08-07T15:56:35;28.40;45.60
21678;DHT22;11000;50.360;7.582;2022-08-07T15:58:59;28.60;45.00
21678;DHT22;11000;50.360;7.582;2022-08-07T16:01:23;28.20;44.60
21678;DHT22;11000;50.360;7.582;2022-08-07T16:03:48;28.70;45.30
21678;DHT22;11000;50.360;7.582;2022-08-07T16:06:10;28.20;44.70
21678;DHT22;11000;50.360;7.582;2022-08-07T16:08:33;28.20;45.00
21678;DHT22;11000;50.360;7.582;2022-08-07T16:11:00;27.90;45.50
21678;DHT22;11000;50.360;7.582;2022-08-07T16:16:04;28.10;46.20
21678;DHT22;11000;50.360;7.582;2022-08-07T16:19:00;28.50;45.20
21678;DHT22;11000;50.360;7.582;2022-08-07T16:21:34;28.40;44.50
21678;DHT22;11000;50.360;7.582;2022-08-07T16:26:53;27.60;44.60
21678;DHT22;11000;50.360;7.582;2022-08-07T16:29:29;27.50;44.50
21678;DHT22;11000;50.360;7.582;2022-08-07T16:32:07;27.10;44.80
21678;DHT22;11000;50.360;7.582;2022-08-07T16:34:43;27.40;45.70
21678;DHT22;11000;50.360;7.582;2022-08-07T16:49:12;27.30;45.90
21678;DHT22;11000;50.360;7.582;2022-08-07T16:54:25;27.80;45.80
21678;DHT22;11000;50.360;7.582;2022-08-07T17:02:40;28.00;45.10
21678;DHT22;11000;50.360;7.582;2022-08-07T17:05:10;28.00;45.20
21678;DHT22;11000;50.360;7.582;2022-08-07T17:07:52;27.90;45.20
21678;DHT22;11000;50.360;7.582;2022-08-07T17:21:27;27.60;46.70
21678;DHT22;11000;50.360;7.582;2022-08-07T17:23:53;27.50;46.90
21678;DHT22;11000;50.360;7.582;2022-08-07T17:26:29;27.50;47.10
21678;DHT22;11000;50.360;7.582;2022-08-07T17:29:00;27.60;46.70
21678;DHT22;11000;50.360;7.582;2022-08-07T17:35:09;27.40;47.70
21678;DHT22;11000;50.360;7.582;2022-08-07T17:38:05;27.10;47.30
21678;DHT22;11000;50.360;7.582;2022-08-07T17:43:33;27.00;47.10
21678;DHT22;11000;50.360;7.582;2022-08-07T17:46:11;26.90;48.50
21678;DHT22;11000;50.360;7.582;2022-08-07T17:48:42;26.80;47.50
21678;DHT22;11000;50.360;7.582;2022-08-07T17:51:17;26.80;47.80
21678;DHT22;11000;50.360;7.582;2022-08-07T17:54:07;26.80;47.70
21678;DHT22;11000;50.360;7.582;2022-08-07T17:56:59;26.80;47.90
21678;DHT22;11000;50.360;7.582;2022-08-07T17:59:33;26.60;48.70
21678;DHT22;11000;50.360;7.582;2022-08-07T18:02:06;26.60;48.30